Time;durP1;ratioP1;P1;durP2;ratioP2;P2;SDS_P1;SDS_P2;PMS_P1;PMS_P2;Temp;Humidity;BMP_temperature;BMP_pressure;BME280_temperature;BME280_humidity;BME280_pressure;Samples;Min_cycle;Max_cycle;Signal;HPM_P1;HPM_P2
2022/09/03 00:01:58;;;;;;;;;;;;;;;12.01;61.32;101042.29;1707187;82;20167;-70
2022/09/03 00:04:50;;;;;;;;;;;;;;;11.98;61.37;101045.30;1739249;82;20545;-70
2022/09/03 00:07:22;;;;;;;;;;;;;;;11.95;61.44;101047.45;1739202;81;20183;-70
2022/09/03 00:09:50;;;;;;;;;;;;;;;11.92;61.51;101039.77;1724739;82;21094;-70
2022/09/03 00:12:25;;;;;;;;;;;;;;;11.88;61.59;101051.78;1718693;82;20452;-70
2022/09/03 00:15:06;;;;;;;;;;;;;;;11.85;61.65;101041.42;1738988;82;20195;-70
2022/09/03 00:17:38;;;;;;;;;;;;;;;11.84;61.73;101047.75;1720433;82;20470;-70
2022/09/03 00:20:19;;;;;;;;;;;;;;;11.81;61.81;101045.41;1739284;82;20451;-70
2022/09/03 00:22:48;;;;;;;;;;;;;;;11.77;61.90;101037.37;1739408;82;21184;-70
2022/09/03 00:25:19;;;;;;;;;;;;;;;11.73;61.97;101040.02;1738548;82;20182;-70
2022/09/03 00:27:49;;;;;;;;;;;;;;;11.70;62.05;101034.98;1735486;82;20217;-70
2022/09/03 00:30:15;;;;;;;;;;;;;;;11.66;62.14;101034.46;1723124;82;20589;-70
2022/09/03 00:32:49;;;;;;;;;;;;;;;11.60;62.21;101030.27;1739336;82;20183;-70
2022/09/03 00:35:31;;;;;;;;;;;;;;;11.56;62.30;101030.25;1738149;82;21135;-70
2022/09/03 00:37:58;;;;;;;;;;;;;;;11.50;62.41;101025.87;1719194;82;20221;-70
2022/09/03 00:40:46;;;;;;;;;;;;;;;11.44;62.48;101023.00;1732752;81;20158;-70
2022/09/03 00:43:34;;;;;;;;;;;;;;;11.41;62.58;101026.84;1722989;81;20151;-70
2022/09/03 00:46:09;;;;;;;;;;;;;;;11.36;62.67;101019.83;1739157;81;20499;-70
2022/09/03 00:48:51;;;;;;;;;;;;;;;11.33;62.76;101028.12;1737491;82;21238;-70
2022/09/03 00:51:28;;;;;;;;;;;;;;;11.28;62.86;101030.45;1739385;82;20171;-70
2022/09/03 00:54:01;;;;;;;;;;;;;;;11.23;63.00;101025.23;1739121;81;20226;-70
2022/09/03 00:56:45;;;;;;;;;;;;;;;11.20;63.07;101021.55;1739064;82;20151;-70
2022/09/03 00:59:27;;;;;;;;;;;;;;;11.17;63.19;101020.54;1737562;82;20488;-70
2022/09/03 01:02:14;;;;;;;;;;;;;;;11.13;63.30;101021.35;1722413;82;21066;-70
2022/09/03 01:05:01;;;;;;;;;;;;;;;11.09;63.40;101019.98;1739426;82;20140;-70
2022/09/03 01:07:32;;;;;;;;;;;;;;;11.05;63.53;101021.30;1738619;81;20444;-70
2022/09/03 01:10:38;;;;;;;;;;;;;;;11.01;63.65;101021.30;1718743;82;20161;-70
2022/09/03 01:13:22;;;;;;;;;;;;;;;11.00;63.75;101023.62;1739446;81;20187;-70
2022/09/03 01:16:27;;;;;;;;;;;;;;;10.96;63.87;101023.59;1734961;82;21222;-70
2022/09/03 01:19:07;;;;;;;;;;;;;;;10.94;63.97;101016.25;1739547;81;20131;-70
2022/09/03 01:21:50;;;;;;;;;;;;;;;10.90;64.11;101015.73;1738833;81;33531;-70
2022/09/03 01:24:30;;;;;;;;;;;;;;;10.87;64.23;101017.88;1718796;82;20683;-70
2022/09/03 01:27:00;;;;;;;;;;;;;;;10.83;64.35;101015.17;1738643;81;20175;-70
2022/09/03 01:29:54;;;;;;;;;;;;;;;10.80;64.47;101014.96;1739430;82;21116;-70
2022/09/03 01:32:32;;;;;;;;;;;;;;;10.78;64.59;101016.13;1739226;81;20159;-70
2022/09/03 01:35:11;;;;;;;;;;;;;;;10.74;64.71;101015.59;1737812;82;20179;-70
2022/09/03 01:37:45;;;;;;;;;;;;;;;10.71;64.84;101019.07;1739099;82;20822;-70
2022/09/03 01:40:46;;;;;;;;;;;;;;;10.68;64.95;101019.39;1739474;81;20175;-70
2022/09/03 01:43:21;;;;;;;;;;;;;;;10.65;65.06;101018.37;1722675;82;21960;-70
2022/09/03 01:45:53;;;;;;;;;;;;;;;10.62;65.16;101013.34;1737137;82;20158;-70
2022/09/03 01:48:31;;;;;;;;;;;;;;;10.60;65.29;101020.16;1739307;82;20162;-70
2022/09/03 01:51:04;;;;;;;;;;;;;;;10.58;65.39;101012.81;1739422;81;20246;-70
2022/09/03 01:54:02;;;;;;;;;;;;;;;10.55;65.51;101013.13;1714133;82;20175;-70
2022/09/03 01:56:43;;;;;;;;;;;;;;;10.53;65.60;101015.94;1718792;82;21232;-69
2022/09/03 01:59:20;;;;;;;;;;;;;;;10.52;65.74;101011.59;1688338;81;20299;-70
2022/09/03 02:01:55;;;;;;;;;;;;;;;10.51;65.88;101012.61;1739304;81;20158;-70
2022/09/03 02:04:23;;;;;;;;;;;;;;;10.51;66.00;101005.09;1736051;81;20155;-70
2022/09/03 02:06:50;;;;;;;;;;;;;;;10.48;66.12;101004.88;1738112;82;20159;-70
2022/09/03 02:09:16;;;;;;;;;;;;;;;10.47;66.24;101008.56;1725434;82;21099;-70
2022/09/03 02:11:42;;;;;;;;;;;;;;;10.47;66.33;101004.56;1732780;81;20605;-70
2022/09/03 02:14:08;;;;;;;;;;;;;;;10.46;66.44;101004.22;1737277;81;20159;-70
2022/09/03 02:16:34;;;;;;;;;;;;;;;10.46;66.55;101009.55;1739435;81;20173;-70
2022/09/03 02:19:02;;;;;;;;;;;;;;;10.45;66.69;101010.53;1739363;81;20178;-70
2022/09/03 02:21:34;;;;;;;;;;;;;;;10.43;66.78;101004.53;1736205;82;21057;-70
2022/09/03 02:24:00;;;;;;;;;;;;;;;10.41;66.95;100998.49;1729985;82;20162;-70
2022/09/03 02:26:26;;;;;;;;;;;;;;;10.39;67.08;101004.48;1733706;81;20274;-70
2022/09/03 02:28:52;;;;;;;;;;;;;;;10.35;67.19;101000.45;1734201;82;20177;-70
2022/09/03 02:31:18;;;;;;;;;;;;;;;10.33;67.31;101001.11;1734283;82;20167;-70
2022/09/03 02:33:45;;;;;;;;;;;;;;;10.32;67.41;100999.92;1733396;81;21031;-70
2022/09/03 02:36:12;;;;;;;;;;;;;;;10.31;67.51;101007.08;1733183;81;20498;-70
2022/09/03 02:38:40;;;;;;;;;;;;;;;10.29;67.62;101004.23;1733871;82;20183;-70
2022/09/03 02:41:06;;;;;;;;;;;;;;;10.27;67.71;101009.73;1729886;82;20148;-70
2022/09/03 02:43:49;;;;;;;;;;;;;;;10.26;67.77;101004.05;1734135;81;20166;-70
2022/09/03 02:46:21;;;;;;;;;;;;;;;10.26;67.88;100997.88;1733663;82;21104;-70
2022/09/03 02:48:47;;;;;;;;;;;;;;;10.25;68.01;100999.70;1734033;82;20155;-70
2022/09/03 02:51:13;;;;;;;;;;;;;;;10.26;68.09;101004.05;1727445;82;20148;-70
2022/09/03 02:53:39;;;;;;;;;;;;;;;10.24;68.22;101004.68;1734026;82;20185;-70
2022/09/03 02:56:05;;;;;;;;;;;;;;;10.22;68.35;100998.68;1731612;82;20487;-70
2022/09/03 02:58:31;;;;;;;;;;;;;;;10.21;68.49;100999.66;1734117;82;21768;-70
2022/09/03 03:00:57;;;;;;;;;;;;;;;10.19;68.62;101002.98;1733721;82;20423;-70
2022/09/03 03:03:23;;;;;;;;;;;;;;;10.20;68.71;101003.34;1731808;82;20289;-70
2022/09/03 03:05:54;;;;;;;;;;;;;;;10.19;68.85;100996.32;1734161;82;20778;-70
2022/09/03 03:08:22;;;;;;;;;;;;;;;10.18;68.93;100998.64;1715505;82;20148;-71
2022/09/03 03:10:48;;;;;;;;;;;;;;;10.19;69.05;101004.32;1732013;82;21119;-70
2022/09/03 03:13:15;;;;;;;;;;;;;;;10.18;69.17;100999.97;1734123;82;20205;-70
2022/09/03 03:15:41;;;;;;;;;;;;;;;10.18;69.29;101002.63;1733970;81;20163;-70
2022/09/03 03:18:10;;;;;;;;;;;;;;;10.17;69.40;100993.48;1734090;81;20376;-70
2022/09/03 03:20:35;;;;;;;;;;;;;;;10.18;69.53;100997.30;1732084;82;20214;-70
2022/09/03 03:23:01;;;;;;;;;;;;;;;10.17;69.62;101001.47;1737879;82;21083;-70
2022/09/03 03:25:27;;;;;;;;;;;;;;;10.15;69.72;101000.28;1738995;82;20164;-70
2022/09/03 03:27:55;;;;;;;;;;;;;;;10.15;69.83;100997.61;1739123;81;20447;-70
2022/09/03 03:30:22;;;;;;;;;;;;;;;10.16;69.95;101007.30;1737276;82;20135;-70
2022/09/03 03:32:47;;;;;;;;;;;;;;;10.14;70.05;101005.25;1739184;81;20163;-70
2022/09/03 03:35:13;;;;;;;;;;;;;;;10.12;70.21;101003.22;1739167;81;21733;-70
2022/09/03 03:37:39;;;;;;;;;;;;;;;10.11;70.35;101001.53;1739136;81;20180;-70
2022/09/03 03:40:06;;;;;;;;;;;;;;;10.10;70.45;101004.38;1734838;82;20217;-70
2022/09/03 03:42:33;;;;;;;;;;;;;;;10.09;70.59;101002.69;1739071;82;20191;-70
2022/09/03 03:45:01;;;;;;;;;;;;;;;10.08;70.72;100996.52;1739246;82;20339;-70
2022/09/03 03:47:29;;;;;;;;;;;;;;;10.07;70.82;100996.16;1738832;81;21123;-70
2022/09/03 03:49:57;;;;;;;;;;;;;;;10.07;70.92;101002.83;1738006;82;20198;-70
2022/09/03 03:52:23;;;;;;;;;;;;;;;10.06;71.04;101002.50;1739002;82;20196;-70
2022/09/03 03:54:50;;;;;;;;;;;;;;;10.04;71.12;101008.46;1739066;82;20456;-70
2022/09/03 03:57:18;;;;;;;;;;;;;;;10.02;71.22;101005.12;1739143;82;20450;-70
2022/09/03 03:59:44;;;;;;;;;;;;;;;10.00;71.31;101013.25;1736861;81;21853;-70
2022/09/03 04:02:10;;;;;;;;;;;;;;;9.98;71.39;101005.08;1738764;82;20480;-70
2022/09/03 04:04:36;;;;;;;;;;;;;;;9.99;71.49;101008.09;1739440;82;20392;-70
2022/09/03 04:07:02;;;;;;;;;;;;;;;9.98;71.54;101009.08;1739319;82;20233;-70
2022/09/03 04:09:28;;;;;;;;;;;;;;;9.97;71.64;101007.39;1736917;81;20167;-70
2022/09/03 04:11:56;;;;;;;;;;;;;;;9.97;71.69;101010.89;1735678;81;21161;-70
2022/09/03 04:14:22;;;;;;;;;;;;;;;9.98;71.75;101011.73;1739040;81;20466;-70
2022/09/03 04:16:49;;;;;;;;;;;;;;;9.99;71.83;101016.09;1739056;81;20467;-70
2022/09/03 04:19:15;;;;;;;;;;;;;;;10.00;71.87;101011.08;1739245;81;20506;-70
2022/09/03 04:21:41;;;;;;;;;;;;;;;10.00;71.93;101015.08;1737474;80;20573;-70
2022/09/03 04:24:07;;;;;;;;;;;;;;;10.02;71.98;101014.45;1738900;81;21221;-70
2022/09/03 04:26:33;;;;;;;;;;;;;;;10.01;72.00;101010.10;1733580;81;20209;-70
2022/09/03 04:29:02;;;;;;;;;;;;;;;10.02;72.08;101011.78;1739212;82;20516;-70
2022/09/03 04:31:28;;;;;;;;;;;;;;;10.04;72.14;101018.62;1737991;81;20401;-70
2022/09/03 04:33:54;;;;;;;;;;;;;;;10.07;72.16;101004.64;1739404;82;20285;-70
2022/09/03 04:36:22;;;;;;;;;;;;;;;10.08;72.21;101007.17;1739162;81;21117;-70
2022/09/03 04:38:49;;;;;;;;;;;;;;;10.11;72.25;101012.19;1739284;81;20155;-70
2022/09/03 04:41:18;;;;;;;;;;;;;;;10.21;72.35;101010.32;1734695;81;20495;-70
2022/09/03 04:43:45;;;;;;;;;;;;;;;10.82;72.68;101013.48;1738908;82;20163;-70
2022/09/03 04:46:12;;;;;;;;;;;;;;;11.98;72.66;101010.55;1739011;82;20187;-71
2022/09/03 04:48:38;;;;;;;;;;;;;;;12.95;72.35;101019.06;1739215;82;21128;-70
2022/09/03 04:51:14;;;;;;;;;;;;;;;13.74;71.90;101018.18;1737376;82;20841;-70
2022/09/03 04:53:42;;;;;;;;;;;;;;;14.47;71.62;101020.75;1739066;81;20150;-71
2022/09/03 04:56:17;;;;;;;;;;;;;;;15.01;71.11;101021.95;1739591;82;20160;-70
2022/09/03 04:58:43;;;;;;;;;;;;;;;15.40;70.75;101021.19;1739126;82;20188;-70
2022/09/03 05:01:16;;;;;;;;;;;;;;;15.85;70.08;101020.14;1731784;82;21060;-71
2022/09/03 05:03:42;;;;;;;;;;;;;;;15.89;69.32;101020.59;1740284;82;20472;-71
2022/09/03 05:06:08;;;;;;;;;;;;;;;15.55;69.14;101023.06;1739184;82;20463;-71
2022/09/03 05:08:35;;;;;;;;;;;;;;;16.00;69.00;101021.45;1733755;82;20192;-71
2022/09/03 05:11:05;;;;;;;;;;;;;;;16.25;68.47;101025.96;1724312;81;20162;-71
2022/09/03 05:13:32;;;;;;;;;;;;;;;16.60;67.76;101026.95;1737028;81;21173;-71
2022/09/03 05:16:01;;;;;;;;;;;;;;;16.85;67.05;101026.86;1735728;82;20155;-71
2022/09/03 05:18:27;;;;;;;;;;;;;;;17.27;66.53;101023.21;1738085;82;20463;-71
2022/09/03 05:21:01;;;;;;;;;;;;;;;17.62;65.69;101020.01;1739331;82;20499;-71
2022/09/03 05:23:28;;;;;;;;;;;;;;;17.60;64.52;101019.36;1732283;81;20155;-71
2022/09/03 05:25:57;;;;;;;;;;;;;;;17.00;64.03;101018.14;1734203;82;21187;-71
2022/09/03 05:28:26;;;;;;;;;;;;;;;16.17;64.12;101028.26;1734148;81;20147;-71
2022/09/03 05:31:01;;;;;;;;;;;;;;;15.47;64.55;101022.11;1732646;82;20451;-71
2022/09/03 05:33:27;;;;;;;;;;;;;;;15.07;64.77;101029.27;1733696;82;20447;-71
2022/09/03 05:36:01;;;;;;;;;;;;;;;14.81;64.86;101029.67;1734185;82;20166;-71
2022/09/03 05:38:27;;;;;;;;;;;;;;;14.70;64.95;101028.80;1732391;82;21026;-71
2022/09/03 05:40:53;;;;;;;;;;;;;;;14.81;65.04;101030.21;1731476;82;20252;-71
2022/09/03 05:43:20;;;;;;;;;;;;;;;14.89;65.06;101031.45;1731861;81;20435;-71
2022/09/03 05:45:47;;;;;;;;;;;;;;;14.97;65.06;101024.67;1734112;82;20584;-71
2022/09/03 05:48:13;;;;;;;;;;;;;;;15.06;65.03;101026.25;1733382;82;20472;-72
2022/09/03 05:50:39;;;;;;;;;;;;;;;15.04;64.96;101025.61;1734124;81;21038;-71
2022/09/03 05:53:05;;;;;;;;;;;;;;;15.08;64.94;101028.26;1721196;82;20161;-71
2022/09/03 05:55:31;;;;;;;;;;;;;;;15.14;64.96;101024.83;1716917;81;20225;-71
2022/09/03 05:57:57;;;;;;;;;;;;;;;15.36;64.87;101030.64;1731666;81;20561;-71
2022/09/03 06:00:23;;;;;;;;;;;;;;;15.38;64.75;101030.44;1716931;82;20269;-71
2022/09/03 06:02:51;;;;;;;;;;;;;;;15.46;64.61;101020.94;1729001;82;21024;-72
2022/09/03 06:05:17;;;;;;;;;;;;;;;15.35;64.47;101033.50;1734120;82;20163;-71
2022/09/03 06:07:47;;;;;;;;;;;;;;;15.33;64.44;101026.98;1733791;81;20167;-72
2022/09/03 06:10:12;;;;;;;;;;;;;;;15.55;64.36;101033.81;1717851;82;20440;-71
2022/09/03 06:12:38;;;;;;;;;;;;;;;15.53;64.19;101037.19;1729712;82;20257;-71
2022/09/03 06:15:04;;;;;;;;;;;;;;;15.51;64.07;101037.39;1732385;82;21145;-71
2022/09/03 06:17:30;;;;;;;;;;;;;;;15.65;64.03;101031.67;1734200;82;20420;-71
2022/09/03 06:19:56;;;;;;;;;;;;;;;15.82;63.85;101025.06;1729568;82;20269;-71
2022/09/03 06:22:24;;;;;;;;;;;;;;;15.99;63.75;101025.16;1735185;82;20219;-71
2022/09/03 06:24:50;;;;;;;;;;;;;;;16.14;63.66;101026.46;1739145;82;20155;-71
2022/09/03 06:27:16;;;;;;;;;;;;;;;16.28;63.55;101026.41;1738949;81;21759;-71
2022/09/03 06:29:42;;;;;;;;;;;;;;;16.27;63.32;101028.77;1738545;81;20179;-71
2022/09/03 06:32:08;;;;;;;;;;;;;;;16.22;63.11;101030.39;1736294;81;20287;-71
2022/09/03 06:34:34;;;;;;;;;;;;;;;16.26;62.90;101029.79;1738555;81;20188;-71
2022/09/03 06:37:00;;;;;;;;;;;;;;;16.42;62.81;101026.86;1736340;82;20162;-71
2022/09/03 06:39:26;;;;;;;;;;;;;;;16.43;62.54;101033.89;1736345;81;21900;-71
2022/09/03 06:41:52;;;;;;;;;;;;;;;16.44;62.39;101032.88;1737897;82;20561;-71
2022/09/03 06:44:18;;;;;;;;;;;;;;;16.37;62.21;101032.48;1738197;82;20163;-71
2022/09/03 06:46:47;;;;;;;;;;;;;;;16.42;62.11;101033.59;1729931;82;20166;-71
2022/09/03 06:49:11;;;;;;;;;;;;;;;16.57;61.95;101040.80;1736626;81;20207;-71
2022/09/03 06:51:37;;;;;;;;;;;;;;;16.66;61.78;101037.78;1737335;82;21114;-71
2022/09/03 06:54:05;;;;;;;;;;;;;;;16.87;61.67;101037.75;1738692;82;20214;-71
2022/09/03 06:56:31;;;;;;;;;;;;;;;16.93;61.39;101038.81;1737382;82;20595;-71
2022/09/03 06:58:58;;;;;;;;;;;;;;;17.13;61.22;101046.56;1735417;82;20545;-72
2022/09/03 07:01:26;;;;;;;;;;;;;;;17.21;61.00;101042.84;1737115;82;20231;-72
2022/09/03 07:03:56;;;;;;;;;;;;;;;17.21;60.71;101045.03;1735595;82;21087;-72
2022/09/03 07:06:24;;;;;;;;;;;;;;;17.20;60.47;101051.48;1736316;82;20159;-72
2022/09/03 07:08:50;;;;;;;;;;;;;;;17.21;60.19;101048.24;1731612;81;20678;-72
2022/09/03 07:11:18;;;;;;;;;;;;;;;17.26;60.01;101052.03;1737942;81;20711;-72
2022/09/03 07:13:46;;;;;;;;;;;;;;;17.25;59.69;101037.39;1736076;82;20170;-72
2022/09/03 07:16:14;;;;;;;;;;;;;;;17.26;59.46;101051.20;1737175;82;21077;-72
2022/09/03 07:18:40;;;;;;;;;;;;;;;17.22;59.24;101048.06;1736804;81;20202;-71
2022/09/03 07:21:07;;;;;;;;;;;;;;;17.36;59.08;101040.88;1731276;81;20797;-72
2022/09/03 07:23:34;;;;;;;;;;;;;;;17.43;58.85;101041.25;1737647;82;20435;-72
2022/09/03 07:26:02;;;;;;;;;;;;;;;17.54;58.79;101035.80;1737210;82;20218;-72
2022/09/03 07:28:29;;;;;;;;;;;;;;;17.66;58.53;101040.16;1736977;82;21895;-72
2022/09/03 07:30:58;;;;;;;;;;;;;;;17.76;58.32;101041.97;1737904;82;20482;-72
2022/09/03 07:33:25;;;;;;;;;;;;;;;17.82;58.14;101037.11;1729056;81;20155;-72
2022/09/03 07:35:51;;;;;;;;;;;;;;;17.77;57.84;101044.45;1737688;81;20521;-72
2022/09/03 07:38:18;;;;;;;;;;;;;;;17.85;57.60;101042.09;1736788;81;20487;-73
2022/09/03 07:40:45;;;;;;;;;;;;;;;18.03;57.47;101049.63;1729153;82;21801;-71
2022/09/03 07:43:12;;;;;;;;;;;;;;;18.00;57.21;101045.48;1733021;82;20187;-72
2022/09/03 07:45:38;;;;;;;;;;;;;;;18.11;57.09;101044.06;1738200;82;20470;-72
2022/09/03 07:48:04;;;;;;;;;;;;;;;18.17;56.80;101044.08;1737826;82;20174;-72
2022/09/03 07:50:36;;;;;;;;;;;;;;;18.30;56.69;101037.35;1732360;82;20163;-72
2022/09/03 07:52:58;;;;;;;;;;;;;;;18.37;56.50;101044.95;1737603;82;20546;-72
2022/09/03 07:55:24;;;;;;;;;;;;;;;18.43;56.24;101038.75;1732847;82;20187;-72
2022/09/03 07:57:55;;;;;;;;;;;;;;;18.41;55.86;101043.51;1706724;81;20159;-72
2022/09/03 08:00:21;;;;;;;;;;;;;;;18.45;55.65;101048.81;1738218;82;20171;-72
2022/09/03 08:02:47;;;;;;;;;;;;;;;18.57;55.52;101048.25;1738491;81;20233;-72
2022/09/03 08:05:13;;;;;;;;;;;;;;;18.77;55.38;101044.52;1739108;82;21070;-72
2022/09/03 08:07:38;;;;;;;;;;;;;;;18.87;55.02;101035.98;1738604;82;20798;-72
2022/09/03 08:10:05;;;;;;;;;;;;;;;18.92;54.82;101041.61;1718451;82;20227;-72
2022/09/03 08:12:31;;;;;;;;;;;;;;;18.87;54.29;101038.17;1739196;82;20435;-72
2022/09/03 08:14:58;;;;;;;;;;;;;;;18.77;53.92;101038.28;1739146;81;20183;-72
2022/09/03 08:17:24;;;;;;;;;;;;;;;18.84;53.79;101033.70;1739214;82;21164;-72
2022/09/03 08:19:49;;;;;;;;;;;;;;;19.01;53.52;101033.59;1739102;81;20338;-72
2022/09/03 08:22:15;;;;;;;;;;;;;;;18.85;53.08;101028.10;1738576;81;20253;-72
2022/09/03 08:24:41;;;;;;;;;;;;;;;19.00;53.10;101030.56;1739250;82;20177;-72
2022/09/03 08:27:07;;;;;;;;;;;;;;;19.13;52.97;101029.22;1738825;82;20202;-72
2022/09/03 08:29:33;;;;;;;;;;;;;;;19.25;52.87;101038.33;1739492;82;21741;-72
2022/09/03 08:31:59;;;;;;;;;;;;;;;19.34;52.75;101031.67;1739436;82;20221;-72
2022/09/03 08:34:25;;;;;;;;;;;;;;;19.43;52.57;101033.13;1739499;81;20217;-72
2022/09/03 08:36:53;;;;;;;;;;;;;;;19.50;52.35;101029.56;1739454;82;20183;-72
2022/09/03 08:39:18;;;;;;;;;;;;;;;19.49;52.11;101021.16;1739572;82;20186;-72
2022/09/03 08:41:51;;;;;;;;;;;;;;;19.59;51.92;101026.95;1738534;81;21091;-72
2022/09/03 08:44:34;;;;;;;;;;;;;;;19.64;51.61;101025.77;1739253;81;20159;-72
2022/09/03 08:47:07;;;;;;;;;;;;;;;19.68;51.41;101017.54;1739253;82;20186;-72
2022/09/03 08:49:54;;;;;;;;;;;;;;;19.75;51.06;101018.34;1737415;82;20486;-72
2022/09/03 08:52:39;;;;;;;;;;;;;;;19.92;50.85;101016.80;1739572;82;20151;-72
2022/09/03 08:55:26;;;;;;;;;;;;;;;20.10;50.60;101019.63;1722669;81;21086;-72
2022/09/03 08:58:03;;;;;;;;;;;;;;;20.03;50.10;101012.06;1739261;81;20467;-73
2022/09/03 09:00:39;;;;;;;;;;;;;;;20.07;49.71;101011.94;1739157;82;20159;-72
2022/09/03 09:03:14;;;;;;;;;;;;;;;19.97;48.98;101003.46;1718325;81;20171;-72
2022/09/03 09:05:47;;;;;;;;;;;;;;;19.89;48.25;101010.47;1739579;82;20175;-72
2022/09/03 09:08:25;;;;;;;;;;;;;;;19.98;48.11;101006.48;1738215;81;21075;-72
2022/09/03 09:10:55;;;;;;;;;;;;;;;20.08;47.74;100996.02;1695134;82;20151;-72
2022/09/03 09:13:43;;;;;;;;;;;;;;;20.21;47.55;100990.50;1739125;82;20159;-72
2022/09/03 09:16:15;;;;;;;;;;;;;;;20.36;47.40;100991.06;1739487;81;20179;-72
2022/09/03 09:18:51;;;;;;;;;;;;;;;20.34;46.77;100979.59;1739445;82;20175;-72
2022/09/03 09:21:33;;;;;;;;;;;;;;;20.23;46.29;100982.97;1739561;81;21077;-72
2022/09/03 09:24:02;;;;;;;;;;;;;;;20.15;46.10;100992.73;1739034;81;20175;-72
2022/09/03 09:26:28;;;;;;;;;;;;;;;20.19;45.92;100983.13;1738805;81;20510;-72
2022/09/03 09:29:02;;;;;;;;;;;;;;;20.32;45.78;100993.91;1739013;82;20182;-72
2022/09/03 09:31:29;;;;;;;;;;;;;;;20.43;45.61;100991.84;1720608;82;20461;-72
2022/09/03 09:34:02;;;;;;;;;;;;;;;20.33;44.64;100996.09;1739079;82;21782;-72
2022/09/03 09:36:27;;;;;;;;;;;;;;;20.20;44.03;100991.54;1724802;82;20152;-72
2022/09/03 09:38:55;;;;;;;;;;;;;;;20.21;43.68;100985.61;1739734;82;20292;-72
2022/09/03 09:41:22;;;;;;;;;;;;;;;20.26;43.56;100985.27;1739259;82;20470;-72
2022/09/03 09:44:04;;;;;;;;;;;;;;;20.40;43.50;100990.94;1739095;81;20158;-72
2022/09/03 09:46:35;;;;;;;;;;;;;;;20.40;43.22;100982.81;1739144;81;21113;-72
2022/09/03 09:49:01;;;;;;;;;;;;;;;20.39;43.08;100983.84;1739208;82;20172;-72
2022/09/03 09:51:31;;;;;;;;;;;;;;;20.50;43.10;100988.25;1739120;81;20307;-72
2022/09/03 09:54:09;;;;;;;;;;;;;;;20.55;43.19;100988.43;1739135;81;20451;-72
2022/09/03 09:56:35;;;;;;;;;;;;;;;20.55;42.97;100987.08;1736241;82;20175;-72
2022/09/03 09:59:04;;;;;;;;;;;;;;;20.47;42.71;100985.47;1739027;81;21134;-72
2022/09/03 10:01:30;;;;;;;;;;;;;;;20.47;42.42;100994.11;1738801;82;20162;-72
2022/09/03 10:04:02;;;;;;;;;;;;;;;20.57;42.24;100987.15;1739039;81;20162;-72
2022/09/03 10:09:17;;;;;;;;;;;;;;;20.46;41.50;100985.15;1733586;82;20451;-73
2022/09/03 10:11:49;;;;;;;;;;;;;;;20.43;41.46;100978.30;1729649;81;21259;-72
2022/09/03 10:14:24;;;;;;;;;;;;;;;20.49;41.50;100979.28;1738980;81;20151;-71
2022/09/03 10:16:53;;;;;;;;;;;;;;;20.51;41.34;100975.02;1734855;81;20160;-71
2022/09/03 10:19:33;;;;;;;;;;;;;;;20.52;41.27;100974.77;1738643;82;20160;-71
2022/09/03 10:22:08;;;;;;;;;;;;;;;20.57;41.32;100979.55;1740737;81;20161;-71
2022/09/03 10:24:58;;;;;;;;;;;;;;;20.62;41.17;100982.44;1736469;81;21116;-71
2022/09/03 10:27:24;;;;;;;;;;;;;;;20.61;41.19;100987.54;1733214;81;20454;-71
2022/09/03 10:29:50;;;;;;;;;;;;;;;20.75;41.36;100978.24;1739345;82;20511;-71
2022/09/03 10:32:44;;;;;;;;;;;;;;;20.79;41.34;100980.27;1721286;82;20233;-71
2022/09/03 10:35:30;;;;;;;;;;;;;;;20.80;41.26;100968.90;1643809;86;20517;-71
2022/09/03 10:38:09;;;;;;;;;;;;;;;20.78;41.24;100971.85;1728132;81;21661;-71
2022/09/03 10:40:41;;;;;;;;;;;;;;;20.89;41.21;100975.71;1739702;81;20167;-71
2022/09/03 10:43:32;;;;;;;;;;;;;;;20.83;40.94;100964.38;1739847;81;20191;-72
2022/09/03 10:46:05;;;;;;;;;;;;;;;20.89;41.03;100962.16;1730464;81;20451;-71
2022/09/03 10:48:46;;;;;;;;;;;;;;;20.89;40.97;100956.73;1744730;81;20494;-71
2022/09/03 10:51:24;;;;;;;;;;;;;;;20.84;41.04;100960.62;1739923;81;21131;-71
2022/09/03 10:54:19;;;;;;;;;;;;;;;20.90;41.17;100952.42;1740355;81;20163;-71
2022/09/03 10:57:05;;;;;;;;;;;;;;;21.01;41.22;100947.30;1739089;81;20397;-71
2022/09/03 10:59:45;;;;;;;;;;;;;;;21.02;41.07;100947.62;1734838;81;20210;-71
2022/09/03 11:02:37;;;;;;;;;;;;;;;21.06;41.03;100948.31;1738699;82;20218;-71
2022/09/03 11:05:14;;;;;;;;;;;;;;;21.02;40.67;100937.61;1737450;81;21031;-71
2022/09/03 11:07:46;;;;;;;;;;;;;;;21.02;40.52;100938.13;1739124;82;20446;-71
2022/09/03 11:10:23;;;;;;;;;;;;;;;21.03;40.24;100939.80;1708529;82;20167;-71
2022/09/03 11:13:09;;;;;;;;;;;;;;;20.93;39.89;100943.84;1739317;82;20167;-71
2022/09/03 11:15:55;;;;;;;;;;;;;;;20.96;39.75;100936.33;1739422;81;20167;-71
2022/09/03 11:18:37;;;;;;;;;;;;;;;21.03;39.62;100935.20;1739359;82;21236;-71
2022/09/03 11:21:04;;;;;;;;;;;;;;;20.81;39.62;100928.55;1718690;82;20186;-71
2022/09/03 11:23:35;;;;;;;;;;;;;;;20.82;39.42;100932.92;1739429;82;20179;-71
2022/09/03 11:26:03;;;;;;;;;;;;;;;20.85;39.25;100929.76;1722151;82;20353;-71
2022/09/03 11:28:54;;;;;;;;;;;;;;;20.92;39.17;100934.06;1736817;82;20461;-71
2022/09/03 11:31:39;;;;;;;;;;;;;;;20.86;38.88;100919.22;1733191;82;21830;-71
2022/09/03 11:34:13;;;;;;;;;;;;;;;20.97;38.90;100915.73;1737221;82;20171;-71
2022/09/03 11:36:39;;;;;;;;;;;;;;;21.12;39.03;100913.53;1739184;81;20159;-71
2022/09/03 11:39:19;;;;;;;;;;;;;;;21.12;38.94;100917.59;1739306;82;20529;-71
2022/09/03 11:41:49;;;;;;;;;;;;;;;21.15;38.56;100926.63;1739145;82;20159;-71
2022/09/03 11:44:17;;;;;;;;;;;;;;;21.10;38.16;100914.30;1721113;82;21023;-71
2022/09/03 11:46:56;;;;;;;;;;;;;;;20.97;38.04;100917.09;1739332;81;20191;-71
2022/09/03 11:49:26;;;;;;;;;;;;;;;20.98;38.04;100902.49;1739403;82;20175;-71
2022/09/03 11:51:59;;;;;;;;;;;;;;;21.08;38.02;100900.08;1739121;82;20613;-71
2022/09/03 11:54:25;;;;;;;;;;;;;;;21.18;38.02;100895.53;1739345;82;20152;-71
2022/09/03 11:57:12;;;;;;;;;;;;;;;21.28;37.98;100897.18;1739462;82;21160;-71
2022/09/03 11:59:39;;;;;;;;;;;;;;;21.26;37.77;100894.68;1739036;82;20472;-71
2022/09/03 12:02:15;;;;;;;;;;;;;;;21.26;37.74;100896.03;1737069;82;20458;-72
2022/09/03 12:04:53;;;;;;;;;;;;;;;21.26;37.68;100895.20;1739337;82;20155;-72
2022/09/03 12:07:34;;;;;;;;;;;;;;;21.26;37.74;100890.61;1739113;82;20183;-72
2022/09/03 12:10:08;;;;;;;;;;;;;;;21.23;37.40;100900.56;1738562;82;21287;-72
2022/09/03 12:12:53;;;;;;;;;;;;;;;21.23;37.43;100889.71;1716538;82;20157;-72
2022/09/03 12:15:22;;;;;;;;;;;;;;;21.23;37.45;100878.86;1710983;82;20185;-72
2022/09/03 12:18:17;;;;;;;;;;;;;;;21.29;37.47;100892.86;1713641;82;20141;-72
2022/09/03 12:20:22;;;;;;;;;;;;;;;21.31;37.35;100875.84;1713249;82;20457;-72
2022/09/03 12:22:48;;;;;;;;;;;;;;;21.43;37.43;100869.65;1722852;82;21139;-72
2022/09/03 12:25:14;;;;;;;;;;;;;;;21.38;37.11;100868.45;1739011;81;20229;-72
2022/09/03 12:27:42;;;;;;;;;;;;;;;21.17;37.14;100858.08;1739397;82;20200;-72
2022/09/03 12:30:15;;;;;;;;;;;;;;;21.15;37.36;100867.48;1739235;82;20155;-72
2022/09/03 12:32:42;;;;;;;;;;;;;;;21.22;37.51;100855.48;1737188;81;20198;-72
2022/09/03 12:35:16;;;;;;;;;;;;;;;21.34;37.66;100869.95;1737738;82;21111;-72
2022/09/03 12:37:44;;;;;;;;;;;;;;;21.43;37.63;100855.00;1738594;81;20155;-72
2022/09/03 12:40:27;;;;;;;;;;;;;;;21.54;37.68;100852.56;1738770;82;20155;-72
2022/09/03 12:42:53;;;;;;;;;;;;;;;21.49;37.39;100856.51;1739084;82;20502;-72
2022/09/03 12:45:21;;;;;;;;;;;;;;;21.40;37.32;100860.89;1739147;81;20605;-72
2022/09/03 12:47:47;;;;;;;;;;;;;;;21.47;37.36;100857.25;1738300;81;21008;-72
2022/09/03 12:50:15;;;;;;;;;;;;;;;21.46;37.26;100861.05;1738936;82;20225;-72
2022/09/03 12:52:53;;;;;;;;;;;;;;;21.35;37.32;100849.91;1738999;82;20218;-72
2022/09/03 12:55:29;;;;;;;;;;;;;;;21.25;37.40;100850.96;1739034;82;20171;-72
2022/09/03 12:58:01;;;;;;;;;;;;;;;21.26;37.47;100851.27;1735683;82;20482;-72
2022/09/03 13:00:27;;;;;;;;;;;;;;;21.32;37.42;100849.55;1738993;82;21147;-72
2022/09/03 13:03:02;;;;;;;;;;;;;;;21.31;37.22;100847.88;1739536;82;20261;-72